LIPY

Ancona Airport

Airport
ICAO code
LIPY
IATA Code
AOI
Summary
ICAO Region
EUR
ICAO Territory
Location

Falconara, Marche

Serving
Ancona
Elevation
49 ft
Coordinates
43° 37' 0" N , 13° 21' 36" E
KCC
Metar
Observation
LIPY 031920Z AUTO VRB02KT 9999 BKN240/// 08/05 Q1020
Station
Falconara
Date/Time
2023-02-03 19:20:00
Wind speed
02 kts
Lowest cloud amount
broken clouds
Temperature
8°C
Dew point
5°C
Humidity
81%
QNH
1020 hPa
Weather condition
n/a

International airport serving Ancona, Italy.

Climatology

Humid “subtropical” climate (Köppen climate classification Cfa) - characterized by hot, humid summers and cool winters. Significant amounts of precipitation occur in all seasons in most areas. Winter rainfall (and sometimes snowfall) is associated with large storms that the westerlies steer from west to east. Most summer rainfall occurs during thunderstorms.

Runways

Designator Length Width Surface Rops
4/22 2962 45 ASP Yes/Yes

Airport map

Aerial View

SKYbrary Partners:

Safety knowledge contributed by: